sensor_id;sensor_type;location;lat;lon;timestamp;P1;durP1;ratioP1;P2;durP2;ratioP2
73693;SDS011;61997;53.974;11.670;2022-08-11T00:01:36;4.10;;;2.80;;
73693;SDS011;61997;53.974;11.670;2022-08-11T00:04:08;5.00;;;2.72;;
73693;SDS011;61997;53.974;11.670;2022-08-11T00:06:35;3.72;;;2.90;;
73693;SDS011;61997;53.974;11.670;2022-08-11T00:09:03;3.92;;;2.78;;
73693;SDS011;61997;53.974;11.670;2022-08-11T00:11:51;26.17;;;4.80;;
73693;SDS011;61997;53.974;11.670;2022-08-11T00:14:19;5.38;;;3.22;;
73693;SDS011;61997;53.974;11.670;2022-08-11T00:16:56;5.47;;;3.40;;
73693;SDS011;61997;53.974;11.670;2022-08-11T00:19:25;4.80;;;2.60;;
73693;SDS011;61997;53.974;11.670;2022-08-11T00:21:53;4.47;;;3.40;;
73693;SDS011;61997;53.974;11.670;2022-08-11T00:24:19;4.53;;;3.22;;
73693;SDS011;61997;53.974;11.670;2022-08-11T00:26:49;5.10;;;2.90;;
73693;SDS011;61997;53.974;11.670;2022-08-11T00:29:16;4.95;;;2.95;;
73693;SDS011;61997;53.974;11.670;2022-08-11T00:31:43;4.70;;;2.60;;
73693;SDS011;61997;53.974;11.670;2022-08-11T00:34:12;4.88;;;2.88;;
73693;SDS011;61997;53.974;11.670;2022-08-11T00:36:44;5.50;;;2.90;;
73693;SDS011;61997;53.974;11.670;2022-08-11T00:39:11;5.75;;;3.10;;
73693;SDS011;61997;53.974;11.670;2022-08-11T00:45:00;4.55;;;3.10;;
73693;SDS011;61997;53.974;11.670;2022-08-11T00:47:41;4.70;;;2.80;;
73693;SDS011;61997;53.974;11.670;2022-08-11T00:56:10;4.13;;;3.00;;
73693;SDS011;61997;53.974;11.670;2022-08-11T01:06:46;5.60;;;3.00;;
73693;SDS011;61997;53.974;11.670;2022-08-11T01:20:57;5.68;;;3.17;;
73693;SDS011;61997;53.974;11.670;2022-08-11T01:45:36;3.78;;;2.72;;
73693;SDS011;61997;53.974;11.670;2022-08-11T01:48:06;5.28;;;2.92;;
73693;SDS011;61997;53.974;11.670;2022-08-11T01:53:37;5.95;;;2.90;;
73693;SDS011;61997;53.974;11.670;2022-08-11T02:04:37;4.68;;;2.72;;
73693;SDS011;61997;53.974;11.670;2022-08-11T02:07:16;3.72;;;2.80;;
73693;SDS011;61997;53.974;11.670;2022-08-11T02:13:03;4.72;;;3.15;;
73693;SDS011;61997;53.974;11.670;2022-08-11T02:15:37;3.17;;;2.17;;
73693;SDS011;61997;53.974;11.670;2022-08-11T02:21:11;5.80;;;2.70;;
73693;SDS011;61997;53.974;11.670;2022-08-11T02:24:03;3.83;;;2.92;;
73693;SDS011;61997;53.974;11.670;2022-08-11T02:26:40;4.32;;;2.55;;
73693;SDS011;61997;53.974;11.670;2022-08-11T02:43:10;3.72;;;2.50;;
73693;SDS011;61997;53.974;11.670;2022-08-11T02:45:38;3.53;;;2.58;;
73693;SDS011;61997;53.974;11.670;2022-08-11T03:07:30;3.40;;;2.17;;
73693;SDS011;61997;53.974;11.670;2022-08-11T03:10:08;3.40;;;2.10;;
73693;SDS011;61997;53.974;11.670;2022-08-11T03:12:44;3.72;;;2.30;;
73693;SDS011;61997;53.974;11.670;2022-08-11T03:16:03;4.15;;;2.22;;
73693;SDS011;61997;53.974;11.670;2022-08-11T03:24:42;3.75;;;2.30;;
73693;SDS011;61997;53.974;11.670;2022-08-11T03:35:44;4.38;;;2.25;;
73693;SDS011;61997;53.974;11.670;2022-08-11T03:38:44;3.05;;;1.92;;
73693;SDS011;61997;53.974;11.670;2022-08-11T03:41:31;3.25;;;2.20;;
73693;SDS011;61997;53.974;11.670;2022-08-11T03:52:15;3.28;;;2.38;;
73693;SDS011;61997;53.974;11.670;2022-08-11T03:58:03;3.80;;;2.20;;
73693;SDS011;61997;53.974;11.670;2022-08-11T04:10:03;3.05;;;2.00;;
73693;SDS011;61997;53.974;11.670;2022-08-11T04:30:11;3.28;;;1.77;;
73693;SDS011;61997;53.974;11.670;2022-08-11T04:38:51;2.47;;;1.80;;
73693;SDS011;61997;53.974;11.670;2022-08-11T04:55:56;3.15;;;2.28;;
73693;SDS011;61997;53.974;11.670;2022-08-11T05:02:29;2.85;;;1.73;;
73693;SDS011;61997;53.974;11.670;2022-08-11T05:13:32;2.70;;;1.80;;
73693;SDS011;61997;53.974;11.670;2022-08-11T05:16:18;2.92;;;1.80;;
73693;SDS011;61997;53.974;11.670;2022-08-11T05:19:07;3.00;;;1.98;;
73693;SDS011;61997;53.974;11.670;2022-08-11T05:21:58;2.95;;;1.70;;
73693;SDS011;61997;53.974;11.670;2022-08-11T05:27:30;3.22;;;1.55;;
73693;SDS011;61997;53.974;11.670;2022-08-11T05:30:37;2.70;;;1.83;;
73693;SDS011;61997;53.974;11.670;2022-08-11T05:33:24;2.55;;;1.52;;
73693;SDS011;61997;53.974;11.670;2022-08-11T05:36:21;2.10;;;1.35;;
73693;SDS011;61997;53.974;11.670;2022-08-11T05:39:01;2.25;;;1.48;;
73693;SDS011;61997;53.974;11.670;2022-08-11T05:41:58;2.63;;;1.73;;
73693;SDS011;61997;53.974;11.670;2022-08-11T05:44:46;2.45;;;1.60;;
73693;SDS011;61997;53.974;11.670;2022-08-11T05:47:31;2.17;;;1.42;;
73693;SDS011;61997;53.974;11.670;2022-08-11T05:50:17;2.00;;;1.27;;
73693;SDS011;61997;53.974;11.670;2022-08-11T05:53:02;2.85;;;1.70;;
73693;SDS011;61997;53.974;11.670;2022-08-11T05:55:46;2.78;;;1.48;;
73693;SDS011;61997;53.974;11.670;2022-08-11T05:58:33;2.67;;;1.50;;
73693;SDS011;61997;53.974;11.670;2022-08-11T06:01:09;2.33;;;1.40;;
73693;SDS011;61997;53.974;11.670;2022-08-11T06:06:23;2.20;;;1.52;;
73693;SDS011;61997;53.974;11.670;2022-08-11T06:08:49;2.47;;;1.35;;
73693;SDS011;61997;53.974;11.670;2022-08-11T06:11:20;2.13;;;1.60;;
73693;SDS011;61997;53.974;11.670;2022-08-11T06:13:45;2.30;;;1.60;;
73693;SDS011;61997;53.974;11.670;2022-08-11T06:16:18;2.10;;;1.60;;
73693;SDS011;61997;53.974;11.670;2022-08-11T06:18:46;2.40;;;1.40;;
73693;SDS011;61997;53.974;11.670;2022-08-11T06:21:12;3.20;;;1.60;;
73693;SDS011;61997;53.974;11.670;2022-08-11T06:23:37;2.30;;;1.42;;
73693;SDS011;61997;53.974;11.670;2022-08-11T06:26:09;2.45;;;1.60;;
73693;SDS011;61997;53.974;11.670;2022-08-11T06:28:36;2.35;;;1.52;;
73693;SDS011;61997;53.974;11.670;2022-08-11T06:31:10;2.53;;;1.70;;
73693;SDS011;61997;53.974;11.670;2022-08-11T06:36:16;2.15;;;1.50;;
73693;SDS011;61997;53.974;11.670;2022-08-11T06:41:51;1.77;;;1.38;;
73693;SDS011;61997;53.974;11.670;2022-08-11T06:44:32;2.33;;;1.40;;
73693;SDS011;61997;53.974;11.670;2022-08-11T06:47:06;2.00;;;1.35;;
73693;SDS011;61997;53.974;11.670;2022-08-11T06:49:36;2.55;;;1.52;;
73693;SDS011;61997;53.974;11.670;2022-08-11T06:52:29;1.90;;;1.30;;
73693;SDS011;61997;53.974;11.670;2022-08-11T06:54:57;2.45;;;1.35;;
73693;SDS011;61997;53.974;11.670;2022-08-11T06:57:30;2.00;;;1.30;;
73693;SDS011;61997;53.974;11.670;2022-08-11T07:00:19;2.90;;;1.42;;
73693;SDS011;61997;53.974;11.670;2022-08-11T07:02:56;2.20;;;1.40;;
73693;SDS011;61997;53.974;11.670;2022-08-11T07:14:10;2.45;;;1.50;;
73693;SDS011;61997;53.974;11.670;2022-08-11T07:16:54;3.28;;;1.35;;
73693;SDS011;61997;53.974;11.670;2022-08-11T07:19:24;3.03;;;1.52;;
73693;SDS011;61997;53.974;11.670;2022-08-11T07:22:10;1.90;;;1.20;;
73693;SDS011;61997;53.974;11.670;2022-08-11T07:24:56;2.58;;;1.60;;
73693;SDS011;61997;53.974;11.670;2022-08-11T07:27:51;2.63;;;1.23;;
73693;SDS011;61997;53.974;11.670;2022-08-11T07:30:40;1.90;;;1.23;;
73693;SDS011;61997;53.974;11.670;2022-08-11T07:33:06;2.35;;;1.30;;
73693;SDS011;61997;53.974;11.670;2022-08-11T07:35:38;3.90;;;1.50;;
73693;SDS011;61997;53.974;11.670;2022-08-11T07:38:08;2.30;;;1.50;;
73693;SDS011;61997;53.974;11.670;2022-08-11T07:40:36;2.88;;;1.65;;
73693;SDS011;61997;53.974;11.670;2022-08-11T07:43:02;1.73;;;1.20;;
73693;SDS011;61997;53.974;11.670;2022-08-11T07:45:29;2.08;;;1.33;;
73693;SDS011;61997;53.974;11.670;2022-08-11T07:48:16;2.00;;;1.40;;
73693;SDS011;61997;53.974;11.670;2022-08-11T07:51:00;1.98;;;1.27;;
73693;SDS011;61997;53.974;11.670;2022-08-11T07:53:45;2.15;;;1.40;;
73693;SDS011;61997;53.974;11.670;2022-08-11T07:56:11;1.90;;;1.20;;
73693;SDS011;61997;53.974;11.670;2022-08-11T07:58:40;2.05;;;1.30;;
73693;SDS011;61997;53.974;11.670;2022-08-11T08:01:24;2.10;;;1.10;;
73693;SDS011;61997;53.974;11.670;2022-08-11T08:04:13;2.38;;;1.27;;
73693;SDS011;61997;53.974;11.670;2022-08-11T08:07:00;2.65;;;1.35;;
73693;SDS011;61997;53.974;11.670;2022-08-11T08:09:46;3.15;;;1.20;;
73693;SDS011;61997;53.974;11.670;2022-08-11T08:12:31;2.70;;;1.40;;
73693;SDS011;61997;53.974;11.670;2022-08-11T08:15:16;1.80;;;1.10;;
73693;SDS011;61997;53.974;11.670;2022-08-11T08:18:02;2.30;;;1.15;;
73693;SDS011;61997;53.974;11.670;2022-08-11T08:20:33;1.90;;;1.00;;
73693;SDS011;61997;53.974;11.670;2022-08-11T08:23:01;2.58;;;1.30;;
73693;SDS011;61997;53.974;11.670;2022-08-11T08:25:29;2.33;;;1.38;;
73693;SDS011;61997;53.974;11.670;2022-08-11T08:27:56;1.90;;;1.40;;
73693;SDS011;61997;53.974;11.670;2022-08-11T08:30:23;1.60;;;1.20;;
73693;SDS011;61997;53.974;11.670;2022-08-11T08:33:10;1.88;;;1.17;;
73693;SDS011;61997;53.974;11.670;2022-08-11T08:35:36;1.90;;;1.20;;
73693;SDS011;61997;53.974;11.670;2022-08-11T08:38:02;3.10;;;1.58;;
73693;SDS011;61997;53.974;11.670;2022-08-11T08:40:28;2.70;;;1.00;;
73693;SDS011;61997;53.974;11.670;2022-08-11T08:43:03;2.95;;;1.50;;
73693;SDS011;61997;53.974;11.670;2022-08-11T08:45:33;2.53;;;1.23;;
73693;SDS011;61997;53.974;11.670;2022-08-11T08:48:10;2.90;;;1.33;;
73693;SDS011;61997;53.974;11.670;2022-08-11T08:50:39;3.00;;;1.13;;
73693;SDS011;61997;53.974;11.670;2022-08-11T08:53:27;1.55;;;1.10;;
73693;SDS011;61997;53.974;11.670;2022-08-11T08:55:56;1.90;;;1.10;;
73693;SDS011;61997;53.974;11.670;2022-08-11T08:58:22;1.77;;;0.95;;
73693;SDS011;61997;53.974;11.670;2022-08-11T09:00:48;1.75;;;1.27;;
73693;SDS011;61997;53.974;11.670;2022-08-11T09:03:15;1.73;;;0.95;;
73693;SDS011;61997;53.974;11.670;2022-08-11T09:05:43;2.60;;;1.40;;
73693;SDS011;61997;53.974;11.670;2022-08-11T09:08:09;1.40;;;1.00;;
73693;SDS011;61997;53.974;11.670;2022-08-11T09:10:34;2.30;;;1.23;;
73693;SDS011;61997;53.974;11.670;2022-08-11T09:13:01;1.67;;;1.20;;
73693;SDS011;61997;53.974;11.670;2022-08-11T09:15:28;2.35;;;1.10;;
73693;SDS011;61997;53.974;11.670;2022-08-11T09:17:56;1.48;;;0.98;;
73693;SDS011;61997;53.974;11.670;2022-08-11T09:20:27;1.83;;;1.30;;
73693;SDS011;61997;53.974;11.670;2022-08-11T09:22:58;1.55;;;0.98;;
73693;SDS011;61997;53.974;11.670;2022-08-11T09:25:45;1.90;;;1.13;;
73693;SDS011;61997;53.974;11.670;2022-08-11T09:28:30;2.10;;;1.20;;
73693;SDS011;61997;53.974;11.670;2022-08-11T09:30:56;2.03;;;1.10;;
73693;SDS011;61997;53.974;11.670;2022-08-11T09:33:25;1.50;;;1.00;;
73693;SDS011;61997;53.974;11.670;2022-08-11T09:35:51;2.08;;;1.05;;
73693;SDS011;61997;53.974;11.670;2022-08-11T09:38:17;2.00;;;1.20;;
73693;SDS011;61997;53.974;11.670;2022-08-11T09:41:03;1.90;;;1.20;;
73693;SDS011;61997;53.974;11.670;2022-08-11T09:43:32;2.25;;;1.20;;
73693;SDS011;61997;53.974;11.670;2022-08-11T09:46:26;1.83;;;1.40;;
73693;SDS011;61997;53.974;11.670;2022-08-11T09:48:53;3.15;;;1.23;;
73693;SDS011;61997;53.974;11.670;2022-08-11T09:51:21;1.70;;;1.23;;
73693;SDS011;61997;53.974;11.670;2022-08-11T09:53:47;2.38;;;1.10;;
73693;SDS011;61997;53.974;11.670;2022-08-11T09:56:15;1.83;;;1.25;;
73693;SDS011;61997;53.974;11.670;2022-08-11T09:59:02;1.42;;;1.00;;
73693;SDS011;61997;53.974;11.670;2022-08-11T10:01:31;1.77;;;1.00;;
73693;SDS011;61997;53.974;11.670;2022-08-11T10:04:06;2.13;;;1.23;;
73693;SDS011;61997;53.974;11.670;2022-08-11T10:06:42;1.60;;;1.13;;
73693;SDS011;61997;53.974;11.670;2022-08-11T10:09:40;1.58;;;1.10;;
73693;SDS011;61997;53.974;11.670;2022-08-11T10:12:10;1.67;;;0.95;;
73693;SDS011;61997;53.974;11.670;2022-08-11T10:14:44;2.05;;;1.25;;
73693;SDS011;61997;53.974;11.670;2022-08-11T10:17:32;2.83;;;1.35;;
73693;SDS011;61997;53.974;11.670;2022-08-11T10:20:00;1.77;;;1.23;;
73693;SDS011;61997;53.974;11.670;2022-08-11T10:22:28;1.77;;;1.27;;
73693;SDS011;61997;53.974;11.670;2022-08-11T10:25:13;1.85;;;1.15;;
73693;SDS011;61997;53.974;11.670;2022-08-11T10:27:58;1.45;;;1.00;;
73693;SDS011;61997;53.974;11.670;2022-08-11T10:30:24;1.30;;;0.88;;
73693;SDS011;61997;53.974;11.670;2022-08-11T10:33:11;2.00;;;1.00;;
73693;SDS011;61997;53.974;11.670;2022-08-11T10:35:55;1.70;;;1.05;;
73693;SDS011;61997;53.974;11.670;2022-08-11T10:38:21;1.60;;;0.98;;
73693;SDS011;61997;53.974;11.670;2022-08-11T10:40:47;1.63;;;1.02;;
73693;SDS011;61997;53.974;11.670;2022-08-11T10:43:33;1.67;;;0.98;;
73693;SDS011;61997;53.974;11.670;2022-08-11T10:45:59;2.08;;;1.13;;
73693;SDS011;61997;53.974;11.670;2022-08-11T10:48:44;2.30;;;1.50;;
73693;SDS011;61997;53.974;11.670;2022-08-11T10:51:09;1.83;;;0.90;;
73693;SDS011;61997;53.974;11.670;2022-08-11T10:53:47;1.80;;;1.00;;
73693;SDS011;61997;53.974;11.670;2022-08-11T10:56:37;1.92;;;0.90;;
73693;SDS011;61997;53.974;11.670;2022-08-11T10:59:21;1.75;;;1.02;;
73693;SDS011;61997;53.974;11.670;2022-08-11T11:01:49;1.75;;;1.00;;
73693;SDS011;61997;53.974;11.670;2022-08-11T11:04:17;2.10;;;1.23;;
73693;SDS011;61997;53.974;11.670;2022-08-11T11:06:52;1.80;;;1.05;;
73693;SDS011;61997;53.974;11.670;2022-08-11T11:09:29;1.58;;;0.82;;
73693;SDS011;61997;53.974;11.670;2022-08-11T11:12:08;1.88;;;1.02;;
73693;SDS011;61997;53.974;11.670;2022-08-11T11:14:54;1.63;;;0.93;;
73693;SDS011;61997;53.974;11.670;2022-08-11T11:17:44;1.42;;;1.10;;
73693;SDS011;61997;53.974;11.670;2022-08-11T11:20:22;1.67;;;0.90;;
73693;SDS011;61997;53.974;11.670;2022-08-11T11:22:52;1.73;;;1.00;;
73693;SDS011;61997;53.974;11.670;2022-08-11T11:25:21;2.08;;;1.25;;
73693;SDS011;61997;53.974;11.670;2022-08-11T11:27:51;1.40;;;0.90;;
73693;SDS011;61997;53.974;11.670;2022-08-11T11:33:01;1.20;;;0.80;;
73693;SDS011;61997;53.974;11.670;2022-08-11T11:35:40;1.60;;;1.15;;
73693;SDS011;61997;53.974;11.670;2022-08-11T11:38:34;3.47;;;1.00;;
73693;SDS011;61997;53.974;11.670;2022-08-11T11:40:59;1.60;;;1.00;;
73693;SDS011;61997;53.974;11.670;2022-08-11T11:43:43;2.13;;;1.00;;
73693;SDS011;61997;53.974;11.670;2022-08-11T11:46:10;1.65;;;0.90;;
73693;SDS011;61997;53.974;11.670;2022-08-11T11:48:40;1.52;;;0.82;;
73693;SDS011;61997;53.974;11.670;2022-08-11T11:51:06;1.20;;;0.93;;
73693;SDS011;61997;53.974;11.670;2022-08-11T11:53:32;1.88;;;1.50;;
73693;SDS011;61997;53.974;11.670;2022-08-11T11:55:59;1.65;;;1.10;;
73693;SDS011;61997;53.974;11.670;2022-08-11T11:58:25;1.48;;;1.00;;
73693;SDS011;61997;53.974;11.670;2022-08-11T12:01:10;1.80;;;1.02;;
73693;SDS011;61997;53.974;11.670;2022-08-11T12:03:44;1.83;;;1.00;;
73693;SDS011;61997;53.974;11.670;2022-08-11T12:06:11;1.95;;;0.98;;
73693;SDS011;61997;53.974;11.670;2022-08-11T12:08:38;1.42;;;1.00;;
73693;SDS011;61997;53.974;11.670;2022-08-11T12:11:13;1.80;;;0.90;;
73693;SDS011;61997;53.974;11.670;2022-08-11T12:13:59;1.70;;;1.00;;
73693;SDS011;61997;53.974;11.670;2022-08-11T12:16:27;2.03;;;1.00;;
73693;SDS011;61997;53.974;11.670;2022-08-11T12:18:56;1.40;;;1.10;;
73693;SDS011;61997;53.974;11.670;2022-08-11T12:21:23;1.75;;;0.98;;
73693;SDS011;61997;53.974;11.670;2022-08-11T12:23:50;1.60;;;1.00;;
73693;SDS011;61997;53.974;11.670;2022-08-11T12:26:35;2.25;;;1.13;;
73693;SDS011;61997;53.974;11.670;2022-08-11T12:29:23;1.80;;;1.10;;
73693;SDS011;61997;53.974;11.670;2022-08-11T12:31:55;2.63;;;0.98;;
73693;SDS011;61997;53.974;11.670;2022-08-11T12:34:24;1.60;;;0.93;;
73693;SDS011;61997;53.974;11.670;2022-08-11T12:36:58;1.45;;;1.20;;
73693;SDS011;61997;53.974;11.670;2022-08-11T12:39:25;2.40;;;1.00;;
73693;SDS011;61997;53.974;11.670;2022-08-11T12:42:12;1.75;;;1.10;;
73693;SDS011;61997;53.974;11.670;2022-08-11T12:45:08;2.17;;;1.10;;
73693;SDS011;61997;53.974;11.670;2022-08-11T12:47:58;2.15;;;1.00;;
73693;SDS011;61997;53.974;11.670;2022-08-11T12:50:45;1.88;;;1.20;;
73693;SDS011;61997;53.974;11.670;2022-08-11T12:53:33;2.88;;;1.05;;
73693;SDS011;61997;53.974;11.670;2022-08-11T12:56:02;2.95;;;0.95;;
73693;SDS011;61997;53.974;11.670;2022-08-11T12:58:48;2.33;;;1.10;;
73693;SDS011;61997;53.974;11.670;2022-08-11T13:01:15;2.13;;;1.10;;
73693;SDS011;61997;53.974;11.670;2022-08-11T13:03:59;1.25;;;1.00;;
73693;SDS011;61997;53.974;11.670;2022-08-11T13:06:44;1.60;;;0.90;;
73693;SDS011;61997;53.974;11.670;2022-08-11T13:09:09;1.50;;;0.93;;
73693;SDS011;61997;53.974;11.670;2022-08-11T13:11:37;1.90;;;1.13;;
73693;SDS011;61997;53.974;11.670;2022-08-11T13:14:22;1.27;;;0.90;;
73693;SDS011;61997;53.974;11.670;2022-08-11T13:16:49;2.00;;;1.00;;
73693;SDS011;61997;53.974;11.670;2022-08-11T13:19:33;1.95;;;1.10;;
73693;SDS011;61997;53.974;11.670;2022-08-11T13:21:59;2.25;;;1.05;;
73693;SDS011;61997;53.974;11.670;2022-08-11T13:24:26;1.60;;;1.00;;
73693;SDS011;61997;53.974;11.670;2022-08-11T13:26:52;2.30;;;1.20;;
73693;SDS011;61997;53.974;11.670;2022-08-11T13:29:19;1.20;;;0.90;;
73693;SDS011;61997;53.974;11.670;2022-08-11T13:31:45;3.05;;;1.67;;
73693;SDS011;61997;53.974;11.670;2022-08-11T13:34:11;1.98;;;1.00;;
73693;SDS011;61997;53.974;11.670;2022-08-11T13:36:37;1.33;;;1.02;;
73693;SDS011;61997;53.974;11.670;2022-08-11T13:39:03;1.80;;;1.23;;
73693;SDS011;61997;53.974;11.670;2022-08-11T13:41:29;1.60;;;1.00;;
73693;SDS011;61997;53.974;11.670;2022-08-11T13:44:12;2.20;;;1.20;;
73693;SDS011;61997;53.974;11.670;2022-08-11T13:46:40;3.15;;;1.30;;
73693;SDS011;61997;53.974;11.670;2022-08-11T13:49:07;2.25;;;1.08;;
73693;SDS011;61997;53.974;11.670;2022-08-11T13:51:33;1.13;;;0.80;;
73693;SDS011;61997;53.974;11.670;2022-08-11T13:54:05;1.98;;;1.13;;
73693;SDS011;61997;53.974;11.670;2022-08-11T13:56:35;1.55;;;0.98;;
73693;SDS011;61997;53.974;11.670;2022-08-11T13:59:05;1.35;;;0.93;;
73693;SDS011;61997;53.974;11.670;2022-08-11T14:01:38;2.10;;;1.23;;
73693;SDS011;61997;53.974;11.670;2022-08-11T14:04:22;2.05;;;0.93;;
73693;SDS011;61997;53.974;11.670;2022-08-11T14:06:51;2.22;;;1.10;;
73693;SDS011;61997;53.974;11.670;2022-08-11T14:09:20;2.25;;;1.10;;
73693;SDS011;61997;53.974;11.670;2022-08-11T14:11:48;3.00;;;1.15;;
73693;SDS011;61997;53.974;11.670;2022-08-11T14:14:32;1.70;;;1.00;;
73693;SDS011;61997;53.974;11.670;2022-08-11T14:17:00;1.67;;;1.20;;
73693;SDS011;61997;53.974;11.670;2022-08-11T14:19:29;2.28;;;1.00;;
73693;SDS011;61997;53.974;11.670;2022-08-11T14:21:55;1.77;;;1.02;;
73693;SDS011;61997;53.974;11.670;2022-08-11T14:24:38;2.00;;;1.10;;
73693;SDS011;61997;53.974;11.670;2022-08-11T14:27:06;1.80;;;1.17;;
73693;SDS011;61997;53.974;11.670;2022-08-11T14:29:33;2.30;;;1.25;;
73693;SDS011;61997;53.974;11.670;2022-08-11T14:32:03;1.90;;;0.98;;
73693;SDS011;61997;53.974;11.670;2022-08-11T14:34:30;1.85;;;1.30;;
73693;SDS011;61997;53.974;11.670;2022-08-11T14:36:59;1.58;;;1.10;;
73693;SDS011;61997;53.974;11.670;2022-08-11T14:39:33;1.90;;;0.95;;
73693;SDS011;61997;53.974;11.670;2022-08-11T14:42:03;1.95;;;1.05;;
73693;SDS011;61997;53.974;11.670;2022-08-11T14:44:50;1.40;;;1.00;;
73693;SDS011;61997;53.974;11.670;2022-08-11T14:47:46;1.80;;;1.08;;
73693;SDS011;61997;53.974;11.670;2022-08-11T14:50:15;1.50;;;1.10;;
73693;SDS011;61997;53.974;11.670;2022-08-11T14:52:52;2.45;;;0.98;;
73693;SDS011;61997;53.974;11.670;2022-08-11T15:00:43;1.90;;;1.33;;
73693;SDS011;61997;53.974;11.670;2022-08-11T15:03:09;1.73;;;0.95;;
73693;SDS011;61997;53.974;11.670;2022-08-11T15:08:18;2.30;;;1.00;;
73693;SDS011;61997;53.974;11.670;2022-08-11T15:10:45;1.75;;;1.20;;
73693;SDS011;61997;53.974;11.670;2022-08-11T15:13:16;1.65;;;0.90;;
73693;SDS011;61997;53.974;11.670;2022-08-11T15:15:43;2.10;;;1.33;;
73693;SDS011;61997;53.974;11.670;2022-08-11T15:18:28;2.42;;;1.30;;
73693;SDS011;61997;53.974;11.670;2022-08-11T15:20:53;2.28;;;1.13;;
73693;SDS011;61997;53.974;11.670;2022-08-11T15:23:39;2.42;;;1.20;;
73693;SDS011;61997;53.974;11.670;2022-08-11T15:29:12;1.80;;;1.02;;
73693;SDS011;61997;53.974;11.670;2022-08-11T15:31:57;2.10;;;1.15;;
73693;SDS011;61997;53.974;11.670;2022-08-11T15:34:42;1.38;;;1.05;;
73693;SDS011;61997;53.974;11.670;2022-08-11T15:37:28;3.17;;;1.45;;
73693;SDS011;61997;53.974;11.670;2022-08-11T15:40:00;2.03;;;1.35;;
73693;SDS011;61997;53.974;11.670;2022-08-11T15:43:24;1.60;;;1.10;;
73693;SDS011;61997;53.974;11.670;2022-08-11T15:51:39;1.55;;;1.10;;
73693;SDS011;61997;53.974;11.670;2022-08-11T15:54:26;2.03;;;1.30;;
73693;SDS011;61997;53.974;11.670;2022-08-11T15:56:55;1.73;;;1.20;;
73693;SDS011;61997;53.974;11.670;2022-08-11T15:59:23;1.75;;;1.13;;
73693;SDS011;61997;53.974;11.670;2022-08-11T16:02:08;1.52;;;1.00;;
73693;SDS011;61997;53.974;11.670;2022-08-11T16:05:07;1.60;;;1.10;;
73693;SDS011;61997;53.974;11.670;2022-08-11T16:07:35;2.00;;;1.20;;
73693;SDS011;61997;53.974;11.670;2022-08-11T16:15:01;2.63;;;1.40;;
73693;SDS011;61997;53.974;11.670;2022-08-11T16:17:53;1.90;;;1.27;;
73693;SDS011;61997;53.974;11.670;2022-08-11T16:20:28;2.38;;;1.00;;
73693;SDS011;61997;53.974;11.670;2022-08-11T16:23:04;2.05;;;1.10;;
73693;SDS011;61997;53.974;11.670;2022-08-11T16:25:34;1.50;;;0.98;;
73693;SDS011;61997;53.974;11.670;2022-08-11T16:28:05;2.25;;;1.13;;
73693;SDS011;61997;53.974;11.670;2022-08-11T16:30:31;1.98;;;1.13;;
73693;SDS011;61997;53.974;11.670;2022-08-11T16:33:00;1.85;;;1.30;;
73693;SDS011;61997;53.974;11.670;2022-08-11T16:35:28;1.83;;;1.30;;
73693;SDS011;61997;53.974;11.670;2022-08-11T16:38:15;2.30;;;1.48;;
73693;SDS011;61997;53.974;11.670;2022-08-11T16:41:01;1.80;;;1.20;;
73693;SDS011;61997;53.974;11.670;2022-08-11T16:43:31;1.63;;;1.13;;
73693;SDS011;61997;53.974;11.670;2022-08-11T16:46:18;2.10;;;1.30;;
73693;SDS011;61997;53.974;11.670;2022-08-11T16:49:08;1.92;;;1.40;;
73693;SDS011;61997;53.974;11.670;2022-08-11T16:51:36;2.80;;;1.67;;
73693;SDS011;61997;53.974;11.670;2022-08-11T16:54:02;2.22;;;1.17;;
73693;SDS011;61997;53.974;11.670;2022-08-11T16:56:47;2.28;;;1.40;;
73693;SDS011;61997;53.974;11.670;2022-08-11T16:59:31;1.90;;;1.30;;
73693;SDS011;61997;53.974;11.670;2022-08-11T17:02:07;2.72;;;1.10;;
73693;SDS011;61997;53.974;11.670;2022-08-11T17:05:00;2.22;;;1.50;;
73693;SDS011;61997;53.974;11.670;2022-08-11T17:07:47;1.63;;;1.30;;
73693;SDS011;61997;53.974;11.670;2022-08-11T17:10:32;2.25;;;1.30;;
73693;SDS011;61997;53.974;11.670;2022-08-11T17:13:20;2.45;;;1.30;;
73693;SDS011;61997;53.974;11.670;2022-08-11T17:15:50;3.25;;;1.25;;
73693;SDS011;61997;53.974;11.670;2022-08-11T17:18:32;3.25;;;1.75;;
73693;SDS011;61997;53.974;11.670;2022-08-11T17:21:18;2.45;;;1.63;;
73693;SDS011;61997;53.974;11.670;2022-08-11T17:23:51;2.17;;;1.42;;
73693;SDS011;61997;53.974;11.670;2022-08-11T17:28:51;2.63;;;1.80;;
73693;SDS011;61997;53.974;11.670;2022-08-11T17:31:20;3.45;;;1.88;;
73693;SDS011;61997;53.974;11.670;2022-08-11T17:34:06;2.33;;;1.67;;
73693;SDS011;61997;53.974;11.670;2022-08-11T17:36:52;2.65;;;1.58;;
73693;SDS011;61997;53.974;11.670;2022-08-11T17:39:19;3.40;;;1.50;;
73693;SDS011;61997;53.974;11.670;2022-08-11T17:41:45;2.00;;;1.60;;
73693;SDS011;61997;53.974;11.670;2022-08-11T17:44:30;2.97;;;1.60;;
73693;SDS011;61997;53.974;11.670;2022-08-11T17:47:14;2.38;;;1.42;;
73693;SDS011;61997;53.974;11.670;2022-08-11T17:49:58;2.65;;;1.50;;
73693;SDS011;61997;53.974;11.670;2022-08-11T17:52:24;2.60;;;1.70;;
73693;SDS011;61997;53.974;11.670;2022-08-11T17:55:08;2.88;;;1.50;;
73693;SDS011;61997;53.974;11.670;2022-08-11T17:57:54;2.20;;;1.35;;
73693;SDS011;61997;53.974;11.670;2022-08-11T18:00:38;2.20;;;1.60;;
73693;SDS011;61997;53.974;11.670;2022-08-11T18:03:04;2.72;;;1.60;;
73693;SDS011;61997;53.974;11.670;2022-08-11T18:05:48;1.83;;;1.42;;
73693;SDS011;61997;53.974;11.670;2022-08-11T18:08:13;2.42;;;1.50;;
73693;SDS011;61997;53.974;11.670;2022-08-11T18:10:59;2.42;;;1.40;;
73693;SDS011;61997;53.974;11.670;2022-08-11T18:13:46;2.67;;;1.40;;
73693;SDS011;61997;53.974;11.670;2022-08-11T18:16:32;2.63;;;1.60;;
73693;SDS011;61997;53.974;11.670;2022-08-11T18:19:17;2.30;;;1.30;;
73693;SDS011;61997;53.974;11.670;2022-08-11T18:22:08;2.03;;;1.30;;
73693;SDS011;61997;53.974;11.670;2022-08-11T18:24:57;3.13;;;1.60;;
73693;SDS011;61997;53.974;11.670;2022-08-11T18:27:46;2.40;;;1.52;;
73693;SDS011;61997;53.974;11.670;2022-08-11T18:30:33;2.30;;;1.48;;
73693;SDS011;61997;53.974;11.670;2022-08-11T18:33:23;2.47;;;1.73;;
73693;SDS011;61997;53.974;11.670;2022-08-11T18:36:11;2.50;;;1.70;;
73693;SDS011;61997;53.974;11.670;2022-08-11T18:38:57;2.13;;;1.30;;
73693;SDS011;61997;53.974;11.670;2022-08-11T18:41:42;2.33;;;1.45;;
73693;SDS011;61997;53.974;11.670;2022-08-11T18:44:28;4.93;;;1.80;;
73693;SDS011;61997;53.974;11.670;2022-08-11T18:47:13;1.80;;;1.55;;
73693;SDS011;61997;53.974;11.670;2022-08-11T18:49:59;2.10;;;1.50;;
73693;SDS011;61997;53.974;11.670;2022-08-11T18:52:44;3.25;;;1.83;;
73693;SDS011;61997;53.974;11.670;2022-08-11T18:55:31;3.17;;;1.58;;
73693;SDS011;61997;53.974;11.670;2022-08-11T18:58:20;2.63;;;1.80;;
73693;SDS011;61997;53.974;11.670;2022-08-11T19:01:06;2.78;;;1.73;;
73693;SDS011;61997;53.974;11.670;2022-08-11T19:03:52;2.22;;;1.55;;
73693;SDS011;61997;53.974;11.670;2022-08-11T19:06:37;2.35;;;1.30;;
73693;SDS011;61997;53.974;11.670;2022-08-11T19:09:22;2.38;;;1.52;;
73693;SDS011;61997;53.974;11.670;2022-08-11T19:12:07;2.40;;;1.52;;
73693;SDS011;61997;53.974;11.670;2022-08-11T19:14:53;2.63;;;1.60;;
73693;SDS011;61997;53.974;11.670;2022-08-11T19:17:38;2.70;;;1.85;;
73693;SDS011;61997;53.974;11.670;2022-08-11T19:20:24;3.50;;;1.60;;
73693;SDS011;61997;53.974;11.670;2022-08-11T19:23:10;2.28;;;1.25;;